Crescent City, IL (60928)

10:28 PM CST en Febrero 26, 2017 (GMT -0600)
North Watseka | | Change Station

Alt 636 ft 40.82 °N, 87.75 °W | Updated 6 minutes ago

Despejado
Despejado
32.9 ° F
Sensación térmica 33 ° F
N
2.0
Viento Variable Viento desde SSO

Hoy
Alta -- | Baja -- ° F
--% Posibilidad de precipitaciones
Ayer
Alta -- | Baja -- ° F
Precip. -- pul
Presión 30.10 pul
Visibilidad 10.0 Millas
Nubes Despejado
Vientos helados 33 ° F
Punto de rocío 25 ° F
Humedad 74%
Precipitaciones 0.00 pul
Espesor de la nieve No disponible.
6:29 AM 5:39 PM
Luna nueva, 0% visible
METAR KIKK 270415Z AUTO 21009KT 10SM CLR 00/M04 A3010 RMK AO2 T10011036
Presión 30.10 pul
Visibilidad 10.0 Millas
Nubes Despejado
Vientos helados 33 ° F
Punto de rocío 25 ° F
Humedad 74%
Precipitaciones 0.00 pul
Espesor de la nieve No disponible.
6:29 AM 5:39 PM
Luna nueva, 0% visible
METAR KIKK 270415Z AUTO 21009KT 10SM CLR 00/M04 A3010 RMK AO2 T10011036

Get Your Daily Forecast Email!

Thanks for signing up!

Be on the lookout for a verification email in your inbox.

You'll start receiving the daily forecast at 8 AM.

×

10-Day Weather Forecast

Almanac

Astronomía

Feb. 26, 2017 Salida Puesta
Hora real
Crepúsculo civil
Crepúsculo náutico
Crepúsculo astronómico
Luna
Horas de luz
Horas de luz
Tomorrow will be .
, % of the Moon is Illuminated

Extremos de hoy

Máximos del estado Bajos del estado

Community

WunderPhotos

Upload Photos

1,962,540 ¡fotos cargadas!

WunderBlog® & News

Nearby

Calidad del aire

  Calidad del aire Índice AQ Contaminante
Not available.

Grosos de nieve

Estación Profundido Altura

Actividad de terremotos

Ciudad Distance Mag. Tiempo y dato
Magnitud mínima muestra es 2,5.

Temperaturas de aguas costeras

Lugar Temperatura

Stations

Estaciones meteorológicas cercanas

Ubicación de la estación Temp. Vientos helados Punto de rocío Humedad Viento Precip. Alt Actualizado Tipo
                   

Watches & Warnings

There are currently no watches in effect.